sensor_id;sensor_type;location;lat;lon;timestamp;P1;durP1;ratioP1;P2;durP2;ratioP2
27780;SDS011;15167;1.318;103.762;2023-07-08T00:00:12;0.00;;;0.00;;
27780;SDS011;15167;1.318;103.762;2023-07-08T00:02:41;0.00;;;0.00;;
27780;SDS011;15167;1.318;103.762;2023-07-08T00:05:09;0.00;;;0.00;;
27780;SDS011;15167;1.318;103.762;2023-07-08T00:07:37;0.00;;;0.00;;
27780;SDS011;15167;1.318;103.762;2023-07-08T00:10:24;0.00;;;0.00;;
27780;SDS011;15167;1.318;103.762;2023-07-08T00:12:52;0.00;;;0.00;;
27780;SDS011;15167;1.318;103.762;2023-07-08T00:15:21;0.00;;;0.00;;
27780;SDS011;15167;1.318;103.762;2023-07-08T00:17:57;0.00;;;0.00;;
27780;SDS011;15167;1.318;103.762;2023-07-08T00:20:32;0.00;;;0.00;;
27780;SDS011;15167;1.318;103.762;2023-07-08T00:23:02;0.00;;;0.00;;
27780;SDS011;15167;1.318;103.762;2023-07-08T00:25:29;0.00;;;0.00;;
27780;SDS011;15167;1.318;103.762;2023-07-08T00:27:57;0.00;;;0.00;;
27780;SDS011;15167;1.318;103.762;2023-07-08T00:30:24;0.00;;;0.00;;
27780;SDS011;15167;1.318;103.762;2023-07-08T00:32:53;0.00;;;0.00;;
27780;SDS011;15167;1.318;103.762;2023-07-08T00:35:21;0.00;;;0.00;;
27780;SDS011;15167;1.318;103.762;2023-07-08T00:37:51;0.00;;;0.00;;
27780;SDS011;15167;1.318;103.762;2023-07-08T00:40:20;0.00;;;0.00;;
27780;SDS011;15167;1.318;103.762;2023-07-08T00:42:48;0.00;;;0.00;;
27780;SDS011;15167;1.318;103.762;2023-07-08T00:45:32;0.00;;;0.00;;
27780;SDS011;15167;1.318;103.762;2023-07-08T00:48:08;0.00;;;0.00;;
27780;SDS011;15167;1.318;103.762;2023-07-08T00:50:37;0.00;;;0.00;;
27780;SDS011;15167;1.318;103.762;2023-07-08T00:53:23;0.00;;;0.00;;
27780;SDS011;15167;1.318;103.762;2023-07-08T00:55:59;0.00;;;0.00;;
27780;SDS011;15167;1.318;103.762;2023-07-08T00:58:35;0.00;;;0.00;;
27780;SDS011;15167;1.318;103.762;2023-07-08T01:01:11;0.00;;;0.00;;
27780;SDS011;15167;1.318;103.762;2023-07-08T01:03:51;0.00;;;0.00;;
27780;SDS011;15167;1.318;103.762;2023-07-08T01:06:21;0.00;;;0.00;;
27780;SDS011;15167;1.318;103.762;2023-07-08T01:09:00;0.00;;;0.00;;
27780;SDS011;15167;1.318;103.762;2023-07-08T01:11:30;0.00;;;0.00;;
27780;SDS011;15167;1.318;103.762;2023-07-08T01:13:58;0.00;;;0.00;;
27780;SDS011;15167;1.318;103.762;2023-07-08T01:16:28;0.00;;;0.00;;
27780;SDS011;15167;1.318;103.762;2023-07-08T01:19:01;0.00;;;0.00;;
27780;SDS011;15167;1.318;103.762;2023-07-08T01:21:44;0.00;;;0.00;;
27780;SDS011;15167;1.318;103.762;2023-07-08T01:24:29;0.00;;;0.00;;
27780;SDS011;15167;1.318;103.762;2023-07-08T01:26:58;0.00;;;0.00;;
27780;SDS011;15167;1.318;103.762;2023-07-08T01:29:27;0.00;;;0.00;;
27780;SDS011;15167;1.318;103.762;2023-07-08T01:31:57;0.00;;;0.00;;
27780;SDS011;15167;1.318;103.762;2023-07-08T01:34:28;0.00;;;0.00;;
27780;SDS011;15167;1.318;103.762;2023-07-08T01:36:55;0.00;;;0.00;;
27780;SDS011;15167;1.318;103.762;2023-07-08T01:39:25;0.00;;;0.00;;
27780;SDS011;15167;1.318;103.762;2023-07-08T01:41:53;0.00;;;0.00;;
27780;SDS011;15167;1.318;103.762;2023-07-08T01:44:31;0.00;;;0.00;;
27780;SDS011;15167;1.318;103.762;2023-07-08T01:49:38;0.00;;;0.00;;
27780;SDS011;15167;1.318;103.762;2023-07-08T01:52:07;0.00;;;0.00;;
27780;SDS011;15167;1.318;103.762;2023-07-08T01:54:34;0.00;;;0.00;;
27780;SDS011;15167;1.318;103.762;2023-07-08T01:57:01;0.00;;;0.00;;
27780;SDS011;15167;1.318;103.762;2023-07-08T01:59:28;0.00;;;0.00;;
27780;SDS011;15167;1.318;103.762;2023-07-08T02:01:54;0.00;;;0.00;;
27780;SDS011;15167;1.318;103.762;2023-07-08T02:04:21;0.00;;;0.00;;
27780;SDS011;15167;1.318;103.762;2023-07-08T02:06:59;0.00;;;0.00;;
27780;SDS011;15167;1.318;103.762;2023-07-08T02:09:26;0.00;;;0.00;;
27780;SDS011;15167;1.318;103.762;2023-07-08T02:11:53;0.00;;;0.00;;
27780;SDS011;15167;1.318;103.762;2023-07-08T02:14:20;0.00;;;0.00;;
27780;SDS011;15167;1.318;103.762;2023-07-08T02:16:47;0.00;;;0.00;;
27780;SDS011;15167;1.318;103.762;2023-07-08T02:19:14;0.00;;;0.00;;
27780;SDS011;15167;1.318;103.762;2023-07-08T02:21:40;0.00;;;0.00;;
27780;SDS011;15167;1.318;103.762;2023-07-08T02:24:07;0.00;;;0.00;;
27780;SDS011;15167;1.318;103.762;2023-07-08T02:26:34;0.00;;;0.00;;
27780;SDS011;15167;1.318;103.762;2023-07-08T02:29:00;0.00;;;0.00;;
27780;SDS011;15167;1.318;103.762;2023-07-08T02:31:28;0.00;;;0.00;;
27780;SDS011;15167;1.318;103.762;2023-07-08T02:33:54;0.00;;;0.00;;
27780;SDS011;15167;1.318;103.762;2023-07-08T02:36:21;0.00;;;0.00;;
27780;SDS011;15167;1.318;103.762;2023-07-08T02:38:47;0.00;;;0.00;;
27780;SDS011;15167;1.318;103.762;2023-07-08T02:41:14;0.00;;;0.00;;
27780;SDS011;15167;1.318;103.762;2023-07-08T02:43:40;0.00;;;0.00;;
27780;SDS011;15167;1.318;103.762;2023-07-08T02:46:07;0.00;;;0.00;;
27780;SDS011;15167;1.318;103.762;2023-07-08T02:48:34;0.00;;;0.00;;
27780;SDS011;15167;1.318;103.762;2023-07-08T02:51:01;0.00;;;0.00;;
27780;SDS011;15167;1.318;103.762;2023-07-08T02:53:28;0.00;;;0.00;;
27780;SDS011;15167;1.318;103.762;2023-07-08T02:55:55;0.00;;;0.00;;
27780;SDS011;15167;1.318;103.762;2023-07-08T02:58:22;0.00;;;0.00;;
27780;SDS011;15167;1.318;103.762;2023-07-08T03:00:52;0.00;;;0.00;;
27780;SDS011;15167;1.318;103.762;2023-07-08T03:03:26;0.00;;;0.00;;
27780;SDS011;15167;1.318;103.762;2023-07-08T03:05:57;0.00;;;0.00;;
27780;SDS011;15167;1.318;103.762;2023-07-08T03:08:26;0.00;;;0.00;;
27780;SDS011;15167;1.318;103.762;2023-07-08T03:10:59;0.00;;;0.00;;
27780;SDS011;15167;1.318;103.762;2023-07-08T03:13:27;0.00;;;0.00;;
27780;SDS011;15167;1.318;103.762;2023-07-08T03:15:55;0.00;;;0.00;;
27780;SDS011;15167;1.318;103.762;2023-07-08T03:18:22;0.00;;;0.00;;
27780;SDS011;15167;1.318;103.762;2023-07-08T03:20:49;0.00;;;0.00;;
27780;SDS011;15167;1.318;103.762;2023-07-08T03:23:16;0.00;;;0.00;;
27780;SDS011;15167;1.318;103.762;2023-07-08T03:25:42;0.00;;;0.00;;
27780;SDS011;15167;1.318;103.762;2023-07-08T03:28:09;0.00;;;0.00;;
27780;SDS011;15167;1.318;103.762;2023-07-08T03:30:39;0.00;;;0.00;;
27780;SDS011;15167;1.318;103.762;2023-07-08T03:33:09;0.00;;;0.00;;
27780;SDS011;15167;1.318;103.762;2023-07-08T03:35:36;0.00;;;0.00;;
27780;SDS011;15167;1.318;103.762;2023-07-08T03:38:06;0.00;;;0.00;;
27780;SDS011;15167;1.318;103.762;2023-07-08T03:40:32;0.00;;;0.00;;
27780;SDS011;15167;1.318;103.762;2023-07-08T03:42:59;0.00;;;0.00;;
27780;SDS011;15167;1.318;103.762;2023-07-08T03:45:25;0.00;;;0.00;;
27780;SDS011;15167;1.318;103.762;2023-07-08T03:47:52;0.00;;;0.00;;
27780;SDS011;15167;1.318;103.762;2023-07-08T03:50:20;0.00;;;0.00;;
27780;SDS011;15167;1.318;103.762;2023-07-08T03:52:49;0.00;;;0.00;;
27780;SDS011;15167;1.318;103.762;2023-07-08T03:55:17;0.00;;;0.00;;
27780;SDS011;15167;1.318;103.762;2023-07-08T03:57:44;0.00;;;0.00;;
27780;SDS011;15167;1.318;103.762;2023-07-08T04:00:11;0.00;;;0.00;;
27780;SDS011;15167;1.318;103.762;2023-07-08T04:02:39;0.00;;;0.00;;
27780;SDS011;15167;1.318;103.762;2023-07-08T04:05:19;0.00;;;0.00;;
27780;SDS011;15167;1.318;103.762;2023-07-08T04:07:48;0.00;;;0.00;;
27780;SDS011;15167;1.318;103.762;2023-07-08T04:10:15;0.00;;;0.00;;
27780;SDS011;15167;1.318;103.762;2023-07-08T04:12:42;0.00;;;0.00;;
27780;SDS011;15167;1.318;103.762;2023-07-08T04:15:09;0.00;;;0.00;;
27780;SDS011;15167;1.318;103.762;2023-07-08T04:17:41;0.00;;;0.00;;
27780;SDS011;15167;1.318;103.762;2023-07-08T04:20:16;0.00;;;0.00;;
27780;SDS011;15167;1.318;103.762;2023-07-08T04:22:43;0.00;;;0.00;;
27780;SDS011;15167;1.318;103.762;2023-07-08T04:25:11;0.00;;;0.00;;
27780;SDS011;15167;1.318;103.762;2023-07-08T04:27:39;0.00;;;0.00;;
27780;SDS011;15167;1.318;103.762;2023-07-08T04:30:07;0.00;;;0.00;;
27780;SDS011;15167;1.318;103.762;2023-07-08T04:32:45;0.00;;;0.00;;
27780;SDS011;15167;1.318;103.762;2023-07-08T04:35:11;0.00;;;0.00;;
27780;SDS011;15167;1.318;103.762;2023-07-08T04:37:38;0.00;;;0.00;;
27780;SDS011;15167;1.318;103.762;2023-07-08T04:40:05;0.00;;;0.00;;
27780;SDS011;15167;1.318;103.762;2023-07-08T04:42:38;0.00;;;0.00;;
27780;SDS011;15167;1.318;103.762;2023-07-08T04:45:05;0.00;;;0.00;;
27780;SDS011;15167;1.318;103.762;2023-07-08T04:47:32;0.00;;;0.00;;
27780;SDS011;15167;1.318;103.762;2023-07-08T04:49:59;0.00;;;0.00;;
27780;SDS011;15167;1.318;103.762;2023-07-08T04:52:25;0.00;;;0.00;;
27780;SDS011;15167;1.318;103.762;2023-07-08T04:54:52;0.00;;;0.00;;
27780;SDS011;15167;1.318;103.762;2023-07-08T04:57:18;0.00;;;0.00;;
27780;SDS011;15167;1.318;103.762;2023-07-08T04:59:46;0.00;;;0.00;;
27780;SDS011;15167;1.318;103.762;2023-07-08T05:02:12;0.00;;;0.00;;
27780;SDS011;15167;1.318;103.762;2023-07-08T05:04:39;0.00;;;0.00;;
27780;SDS011;15167;1.318;103.762;2023-07-08T05:07:06;0.00;;;0.00;;
27780;SDS011;15167;1.318;103.762;2023-07-08T05:09:32;0.00;;;0.00;;
27780;SDS011;15167;1.318;103.762;2023-07-08T05:12:00;0.00;;;0.00;;
27780;SDS011;15167;1.318;103.762;2023-07-08T05:14:27;0.00;;;0.00;;
27780;SDS011;15167;1.318;103.762;2023-07-08T05:16:55;0.00;;;0.00;;
27780;SDS011;15167;1.318;103.762;2023-07-08T05:19:22;0.00;;;0.00;;
27780;SDS011;15167;1.318;103.762;2023-07-08T05:21:49;0.00;;;0.00;;
27780;SDS011;15167;1.318;103.762;2023-07-08T05:24:16;0.00;;;0.00;;
27780;SDS011;15167;1.318;103.762;2023-07-08T05:26:42;0.00;;;0.00;;
27780;SDS011;15167;1.318;103.762;2023-07-08T05:29:09;0.10;;;0.10;;
27780;SDS011;15167;1.318;103.762;2023-07-08T05:31:35;0.00;;;0.00;;
27780;SDS011;15167;1.318;103.762;2023-07-08T05:34:02;0.00;;;0.00;;
27780;SDS011;15167;1.318;103.762;2023-07-08T05:36:28;0.10;;;0.10;;
27780;SDS011;15167;1.318;103.762;2023-07-08T05:38:55;0.10;;;0.10;;
27780;SDS011;15167;1.318;103.762;2023-07-08T05:41:21;0.10;;;0.10;;
27780;SDS011;15167;1.318;103.762;2023-07-08T05:43:48;0.20;;;0.20;;
27780;SDS011;15167;1.318;103.762;2023-07-08T05:46:15;0.10;;;0.10;;
27780;SDS011;15167;1.318;103.762;2023-07-08T05:48:41;0.20;;;0.20;;
27780;SDS011;15167;1.318;103.762;2023-07-08T05:51:08;0.20;;;0.20;;
27780;SDS011;15167;1.318;103.762;2023-07-08T05:53:34;0.20;;;0.20;;
27780;SDS011;15167;1.318;103.762;2023-07-08T05:56:02;0.20;;;0.20;;
27780;SDS011;15167;1.318;103.762;2023-07-08T05:58:29;0.20;;;0.20;;
27780;SDS011;15167;1.318;103.762;2023-07-08T06:00:56;0.25;;;0.25;;
27780;SDS011;15167;1.318;103.762;2023-07-08T06:03:23;0.30;;;0.30;;
27780;SDS011;15167;1.318;103.762;2023-07-08T06:05:50;0.20;;;0.20;;
27780;SDS011;15167;1.318;103.762;2023-07-08T06:08:17;0.20;;;0.20;;
27780;SDS011;15167;1.318;103.762;2023-07-08T06:10:44;0.20;;;0.20;;
27780;SDS011;15167;1.318;103.762;2023-07-08T06:13:11;0.20;;;0.20;;
27780;SDS011;15167;1.318;103.762;2023-07-08T06:15:38;0.20;;;0.20;;
27780;SDS011;15167;1.318;103.762;2023-07-08T06:18:05;0.20;;;0.20;;
27780;SDS011;15167;1.318;103.762;2023-07-08T06:20:32;0.30;;;0.30;;
27780;SDS011;15167;1.318;103.762;2023-07-08T06:22:59;0.30;;;0.30;;
27780;SDS011;15167;1.318;103.762;2023-07-08T06:25:25;0.30;;;0.30;;
27780;SDS011;15167;1.318;103.762;2023-07-08T06:27:53;0.30;;;0.30;;
27780;SDS011;15167;1.318;103.762;2023-07-08T06:30:19;0.25;;;0.25;;
27780;SDS011;15167;1.318;103.762;2023-07-08T06:32:46;0.20;;;0.20;;
27780;SDS011;15167;1.318;103.762;2023-07-08T06:35:12;0.27;;;0.27;;
27780;SDS011;15167;1.318;103.762;2023-07-08T06:37:39;0.30;;;0.30;;
27780;SDS011;15167;1.318;103.762;2023-07-08T06:40:07;0.30;;;0.30;;
27780;SDS011;15167;1.318;103.762;2023-07-08T06:42:34;0.30;;;0.30;;
27780;SDS011;15167;1.318;103.762;2023-07-08T06:45:01;0.40;;;0.40;;
27780;SDS011;15167;1.318;103.762;2023-07-08T06:47:28;0.30;;;0.30;;
27780;SDS011;15167;1.318;103.762;2023-07-08T06:49:55;0.33;;;0.33;;
27780;SDS011;15167;1.318;103.762;2023-07-08T06:52:21;0.40;;;0.40;;
27780;SDS011;15167;1.318;103.762;2023-07-08T06:54:48;0.40;;;0.40;;
27780;SDS011;15167;1.318;103.762;2023-07-08T06:57:14;0.40;;;0.40;;
27780;SDS011;15167;1.318;103.762;2023-07-08T06:59:41;0.40;;;0.40;;
27780;SDS011;15167;1.318;103.762;2023-07-08T07:02:08;0.40;;;0.40;;
27780;SDS011;15167;1.318;103.762;2023-07-08T07:04:35;0.45;;;0.45;;
27780;SDS011;15167;1.318;103.762;2023-07-08T07:07:01;0.50;;;0.50;;
27780;SDS011;15167;1.318;103.762;2023-07-08T07:09:28;0.40;;;0.40;;
27780;SDS011;15167;1.318;103.762;2023-07-08T07:11:54;0.30;;;0.30;;
27780;SDS011;15167;1.318;103.762;2023-07-08T07:14:21;0.30;;;0.30;;
27780;SDS011;15167;1.318;103.762;2023-07-08T07:16:48;0.20;;;0.20;;
27780;SDS011;15167;1.318;103.762;2023-07-08T07:19:14;0.20;;;0.20;;
27780;SDS011;15167;1.318;103.762;2023-07-08T07:21:41;0.20;;;0.20;;
27780;SDS011;15167;1.318;103.762;2023-07-08T07:24:07;0.10;;;0.10;;
27780;SDS011;15167;1.318;103.762;2023-07-08T07:26:34;0.10;;;0.10;;
27780;SDS011;15167;1.318;103.762;2023-07-08T07:29:02;0.10;;;0.10;;
27780;SDS011;15167;1.318;103.762;2023-07-08T07:31:28;0.08;;;0.08;;
27780;SDS011;15167;1.318;103.762;2023-07-08T07:33:56;0.10;;;0.10;;
27780;SDS011;15167;1.318;103.762;2023-07-08T07:36:22;0.10;;;0.10;;
27780;SDS011;15167;1.318;103.762;2023-07-08T07:38:49;0.10;;;0.10;;
27780;SDS011;15167;1.318;103.762;2023-07-08T07:41:16;0.10;;;0.10;;
27780;SDS011;15167;1.318;103.762;2023-07-08T07:43:42;0.10;;;0.10;;
27780;SDS011;15167;1.318;103.762;2023-07-08T07:46:09;0.00;;;0.00;;
27780;SDS011;15167;1.318;103.762;2023-07-08T07:48:35;0.00;;;0.00;;
27780;SDS011;15167;1.318;103.762;2023-07-08T07:51:02;0.03;;;0.03;;
27780;SDS011;15167;1.318;103.762;2023-07-08T07:53:29;0.00;;;0.00;;
27780;SDS011;15167;1.318;103.762;2023-07-08T07:56:00;0.00;;;0.00;;
27780;SDS011;15167;1.318;103.762;2023-07-08T07:58:29;0.00;;;0.00;;
27780;SDS011;15167;1.318;103.762;2023-07-08T08:00:56;0.00;;;0.00;;
27780;SDS011;15167;1.318;103.762;2023-07-08T08:03:23;0.00;;;0.00;;
27780;SDS011;15167;1.318;103.762;2023-07-08T08:05:50;0.00;;;0.00;;
27780;SDS011;15167;1.318;103.762;2023-07-08T08:08:17;0.00;;;0.00;;
27780;SDS011;15167;1.318;103.762;2023-07-08T08:10:45;0.00;;;0.00;;
27780;SDS011;15167;1.318;103.762;2023-07-08T08:13:11;0.00;;;0.00;;
27780;SDS011;15167;1.318;103.762;2023-07-08T08:15:38;0.00;;;0.00;;
27780;SDS011;15167;1.318;103.762;2023-07-08T08:18:05;0.00;;;0.00;;
27780;SDS011;15167;1.318;103.762;2023-07-08T08:20:31;0.00;;;0.00;;
27780;SDS011;15167;1.318;103.762;2023-07-08T08:22:58;0.00;;;0.00;;
27780;SDS011;15167;1.318;103.762;2023-07-08T08:25:25;0.00;;;0.00;;
27780;SDS011;15167;1.318;103.762;2023-07-08T08:27:51;0.00;;;0.00;;
27780;SDS011;15167;1.318;103.762;2023-07-08T08:30:18;0.00;;;0.00;;
27780;SDS011;15167;1.318;103.762;2023-07-08T08:32:45;0.00;;;0.00;;
27780;SDS011;15167;1.318;103.762;2023-07-08T08:35:11;0.00;;;0.00;;
27780;SDS011;15167;1.318;103.762;2023-07-08T08:37:38;0.00;;;0.00;;
27780;SDS011;15167;1.318;103.762;2023-07-08T08:40:05;0.00;;;0.00;;
27780;SDS011;15167;1.318;103.762;2023-07-08T08:42:33;0.00;;;0.00;;
27780;SDS011;15167;1.318;103.762;2023-07-08T08:45:07;0.00;;;0.00;;
27780;SDS011;15167;1.318;103.762;2023-07-08T08:47:39;0.00;;;0.00;;
27780;SDS011;15167;1.318;103.762;2023-07-08T08:53:11;0.00;;;0.00;;
27780;SDS011;15167;1.318;103.762;2023-07-08T08:55:40;0.00;;;0.00;;
27780;SDS011;15167;1.318;103.762;2023-07-08T09:01:00;0.00;;;0.00;;
27780;SDS011;15167;1.318;103.762;2023-07-08T09:06:25;0.00;;;0.00;;
27780;SDS011;15167;1.318;103.762;2023-07-08T09:08:57;0.00;;;0.00;;
27780;SDS011;15167;1.318;103.762;2023-07-08T09:11:47;0.00;;;0.00;;
27780;SDS011;15167;1.318;103.762;2023-07-08T09:14:28;0.00;;;0.00;;
27780;SDS011;15167;1.318;103.762;2023-07-08T09:16:58;0.00;;;0.00;;
27780;SDS011;15167;1.318;103.762;2023-07-08T09:20:12;0.00;;;0.00;;
27780;SDS011;15167;1.318;103.762;2023-07-08T09:22:42;0.00;;;0.00;;
27780;SDS011;15167;1.318;103.762;2023-07-08T09:25:32;0.00;;;0.00;;
27780;SDS011;15167;1.318;103.762;2023-07-08T09:28:14;0.00;;;0.00;;
27780;SDS011;15167;1.318;103.762;2023-07-08T09:30:41;0.00;;;0.00;;
27780;SDS011;15167;1.318;103.762;2023-07-08T09:33:08;0.00;;;0.00;;
27780;SDS011;15167;1.318;103.762;2023-07-08T09:35:42;0.00;;;0.00;;
27780;SDS011;15167;1.318;103.762;2023-07-08T09:38:16;0.00;;;0.00;;
27780;SDS011;15167;1.318;103.762;2023-07-08T09:40:55;0.00;;;0.00;;
27780;SDS011;15167;1.318;103.762;2023-07-08T09:43:26;0.00;;;0.00;;
27780;SDS011;15167;1.318;103.762;2023-07-08T09:45:58;0.00;;;0.00;;
27780;SDS011;15167;1.318;103.762;2023-07-08T09:48:29;0.00;;;0.00;;
27780;SDS011;15167;1.318;103.762;2023-07-08T09:51:00;0.00;;;0.00;;
27780;SDS011;15167;1.318;103.762;2023-07-08T09:53:27;0.00;;;0.00;;
27780;SDS011;15167;1.318;103.762;2023-07-08T09:55:58;0.00;;;0.00;;
27780;SDS011;15167;1.318;103.762;2023-07-08T09:58:27;0.00;;;0.00;;
27780;SDS011;15167;1.318;103.762;2023-07-08T10:00:57;0.00;;;0.00;;
27780;SDS011;15167;1.318;103.762;2023-07-08T10:03:30;0.00;;;0.00;;
27780;SDS011;15167;1.318;103.762;2023-07-08T10:06:03;0.00;;;0.00;;
27780;SDS011;15167;1.318;103.762;2023-07-08T10:08:42;0.00;;;0.00;;
27780;SDS011;15167;1.318;103.762;2023-07-08T10:11:12;0.00;;;0.00;;
27780;SDS011;15167;1.318;103.762;2023-07-08T10:14:20;0.00;;;0.00;;
27780;SDS011;15167;1.318;103.762;2023-07-08T10:17:02;0.00;;;0.00;;
27780;SDS011;15167;1.318;103.762;2023-07-08T10:19:29;0.00;;;0.00;;
27780;SDS011;15167;1.318;103.762;2023-07-08T10:30:07;0.00;;;0.00;;
27780;SDS011;15167;1.318;103.762;2023-07-08T10:35:21;0.00;;;0.00;;
27780;SDS011;15167;1.318;103.762;2023-07-08T10:38:18;0.00;;;0.00;;
27780;SDS011;15167;1.318;103.762;2023-07-08T10:41:12;0.00;;;0.00;;
27780;SDS011;15167;1.318;103.762;2023-07-08T10:45:04;0.00;;;0.00;;
27780;SDS011;15167;1.318;103.762;2023-07-08T10:49:52;0.00;;;0.00;;
27780;SDS011;15167;1.318;103.762;2023-07-08T10:52:45;0.00;;;0.00;;
27780;SDS011;15167;1.318;103.762;2023-07-08T10:55:37;0.00;;;0.00;;
27780;SDS011;15167;1.318;103.762;2023-07-08T11:06:53;0.00;;;0.00;;
27780;SDS011;15167;1.318;103.762;2023-07-08T11:09:34;0.00;;;0.00;;
27780;SDS011;15167;1.318;103.762;2023-07-08T11:15:18;0.00;;;0.00;;
27780;SDS011;15167;1.318;103.762;2023-07-08T11:18:07;0.00;;;0.00;;
27780;SDS011;15167;1.318;103.762;2023-07-08T11:23:31;0.00;;;0.00;;
27780;SDS011;15167;1.318;103.762;2023-07-08T11:29:00;0.00;;;0.00;;
27780;SDS011;15167;1.318;103.762;2023-07-08T11:31:30;0.00;;;0.00;;
27780;SDS011;15167;1.318;103.762;2023-07-08T11:33:59;0.00;;;0.00;;
27780;SDS011;15167;1.318;103.762;2023-07-08T11:36:27;0.00;;;0.00;;
27780;SDS011;15167;1.318;103.762;2023-07-08T11:38:56;0.00;;;0.00;;
27780;SDS011;15167;1.318;103.762;2023-07-08T11:41:26;0.00;;;0.00;;
27780;SDS011;15167;1.318;103.762;2023-07-08T11:44:02;0.00;;;0.00;;
27780;SDS011;15167;1.318;103.762;2023-07-08T11:46:31;0.00;;;0.00;;
27780;SDS011;15167;1.318;103.762;2023-07-08T11:49:04;0.00;;;0.00;;
27780;SDS011;15167;1.318;103.762;2023-07-08T11:51:37;0.00;;;0.00;;
27780;SDS011;15167;1.318;103.762;2023-07-08T11:54:19;0.00;;;0.00;;
27780;SDS011;15167;1.318;103.762;2023-07-08T11:56:58;0.00;;;0.00;;
27780;SDS011;15167;1.318;103.762;2023-07-08T11:59:30;0.00;;;0.00;;
27780;SDS011;15167;1.318;103.762;2023-07-08T12:02:19;0.00;;;0.00;;
27780;SDS011;15167;1.318;103.762;2023-07-08T12:05:00;0.00;;;0.00;;
27780;SDS011;15167;1.318;103.762;2023-07-08T12:07:36;0.00;;;0.00;;
27780;SDS011;15167;1.318;103.762;2023-07-08T12:10:17;0.00;;;0.00;;
27780;SDS011;15167;1.318;103.762;2023-07-08T12:12:53;0.00;;;0.00;;
27780;SDS011;15167;1.318;103.762;2023-07-08T12:15:25;0.00;;;0.00;;
27780;SDS011;15167;1.318;103.762;2023-07-08T12:17:53;0.00;;;0.00;;
27780;SDS011;15167;1.318;103.762;2023-07-08T12:20:52;0.00;;;0.00;;
27780;SDS011;15167;1.318;103.762;2023-07-08T12:23:23;0.00;;;0.00;;
27780;SDS011;15167;1.318;103.762;2023-07-08T12:25:51;0.00;;;0.00;;
27780;SDS011;15167;1.318;103.762;2023-07-08T12:28:19;0.00;;;0.00;;
27780;SDS011;15167;1.318;103.762;2023-07-08T12:30:47;0.00;;;0.00;;
27780;SDS011;15167;1.318;103.762;2023-07-08T12:33:19;0.00;;;0.00;;
27780;SDS011;15167;1.318;103.762;2023-07-08T12:35:56;0.00;;;0.00;;
27780;SDS011;15167;1.318;103.762;2023-07-08T12:38:35;0.00;;;0.00;;
27780;SDS011;15167;1.318;103.762;2023-07-08T12:41:15;0.00;;;0.00;;
27780;SDS011;15167;1.318;103.762;2023-07-08T12:43:44;0.00;;;0.00;;
27780;SDS011;15167;1.318;103.762;2023-07-08T12:46:15;0.00;;;0.00;;
27780;SDS011;15167;1.318;103.762;2023-07-08T12:48:42;0.00;;;0.00;;
27780;SDS011;15167;1.318;103.762;2023-07-08T12:51:11;0.00;;;0.00;;
27780;SDS011;15167;1.318;103.762;2023-07-08T12:53:41;0.00;;;0.00;;
27780;SDS011;15167;1.318;103.762;2023-07-08T12:56:08;0.00;;;0.00;;
27780;SDS011;15167;1.318;103.762;2023-07-08T12:58:45;0.00;;;0.00;;
27780;SDS011;15167;1.318;103.762;2023-07-08T13:01:25;0.00;;;0.00;;
27780;SDS011;15167;1.318;103.762;2023-07-08T13:03:56;0.00;;;0.00;;
27780;SDS011;15167;1.318;103.762;2023-07-08T13:06:31;0.00;;;0.00;;
27780;SDS011;15167;1.318;103.762;2023-07-08T13:11:48;0.00;;;0.00;;
27780;SDS011;15167;1.318;103.762;2023-07-08T13:14:17;0.00;;;0.00;;
27780;SDS011;15167;1.318;103.762;2023-07-08T13:16:46;0.00;;;0.00;;
27780;SDS011;15167;1.318;103.762;2023-07-08T13:19:14;0.00;;;0.00;;
27780;SDS011;15167;1.318;103.762;2023-07-08T13:21:41;0.00;;;0.00;;
27780;SDS011;15167;1.318;103.762;2023-07-08T13:24:10;0.00;;;0.00;;
27780;SDS011;15167;1.318;103.762;2023-07-08T13:26:38;0.00;;;0.00;;
27780;SDS011;15167;1.318;103.762;2023-07-08T13:29:09;0.00;;;0.00;;
27780;SDS011;15167;1.318;103.762;2023-07-08T13:31:52;0.00;;;0.00;;
27780;SDS011;15167;1.318;103.762;2023-07-08T13:34:23;0.00;;;0.00;;
27780;SDS011;15167;1.318;103.762;2023-07-08T13:36:51;0.00;;;0.00;;
27780;SDS011;15167;1.318;103.762;2023-07-08T13:39:23;0.00;;;0.00;;
27780;SDS011;15167;1.318;103.762;2023-07-08T13:41:58;0.00;;;0.00;;
27780;SDS011;15167;1.318;103.762;2023-07-08T13:44:26;0.00;;;0.00;;
27780;SDS011;15167;1.318;103.762;2023-07-08T13:46:53;0.00;;;0.00;;
27780;SDS011;15167;1.318;103.762;2023-07-08T13:49:29;0.00;;;0.00;;
27780;SDS011;15167;1.318;103.762;2023-07-08T13:52:06;0.00;;;0.00;;
27780;SDS011;15167;1.318;103.762;2023-07-08T13:54:37;0.00;;;0.00;;
27780;SDS011;15167;1.318;103.762;2023-07-08T13:57:11;0.00;;;0.00;;
27780;SDS011;15167;1.318;103.762;2023-07-08T13:59:41;0.00;;;0.00;;
27780;SDS011;15167;1.318;103.762;2023-07-08T14:02:14;0.00;;;0.00;;
27780;SDS011;15167;1.318;103.762;2023-07-08T14:04:43;0.00;;;0.00;;
27780;SDS011;15167;1.318;103.762;2023-07-08T14:07:20;0.00;;;0.00;;
27780;SDS011;15167;1.318;103.762;2023-07-08T14:09:48;0.00;;;0.00;;
27780;SDS011;15167;1.318;103.762;2023-07-08T14:12:15;0.00;;;0.00;;
27780;SDS011;15167;1.318;103.762;2023-07-08T14:14:41;0.00;;;0.00;;
27780;SDS011;15167;1.318;103.762;2023-07-08T14:17:09;0.00;;;0.00;;
27780;SDS011;15167;1.318;103.762;2023-07-08T14:19:39;0.00;;;0.00;;
27780;SDS011;15167;1.318;103.762;2023-07-08T14:24:41;0.00;;;0.00;;
27780;SDS011;15167;1.318;103.762;2023-07-08T14:27:08;0.00;;;0.00;;
27780;SDS011;15167;1.318;103.762;2023-07-08T14:29:39;0.00;;;0.00;;
27780;SDS011;15167;1.318;103.762;2023-07-08T14:32:39;0.00;;;0.00;;
27780;SDS011;15167;1.318;103.762;2023-07-08T14:35:07;0.00;;;0.00;;
27780;SDS011;15167;1.318;103.762;2023-07-08T14:37:41;0.00;;;0.00;;
27780;SDS011;15167;1.318;103.762;2023-07-08T14:43:04;0.00;;;0.00;;
27780;SDS011;15167;1.318;103.762;2023-07-08T14:45:39;0.00;;;0.00;;
27780;SDS011;15167;1.318;103.762;2023-07-08T14:48:13;0.00;;;0.00;;
27780;SDS011;15167;1.318;103.762;2023-07-08T14:50:40;0.00;;;0.00;;
27780;SDS011;15167;1.318;103.762;2023-07-08T14:53:07;0.00;;;0.00;;
27780;SDS011;15167;1.318;103.762;2023-07-08T14:55:34;0.00;;;0.00;;
27780;SDS011;15167;1.318;103.762;2023-07-08T14:58:01;0.00;;;0.00;;
27780;SDS011;15167;1.318;103.762;2023-07-08T15:00:29;0.00;;;0.00;;
27780;SDS011;15167;1.318;103.762;2023-07-08T15:02:56;0.00;;;0.00;;
27780;SDS011;15167;1.318;103.762;2023-07-08T15:05:23;0.00;;;0.00;;
27780;SDS011;15167;1.318;103.762;2023-07-08T15:07:55;0.00;;;0.00;;
27780;SDS011;15167;1.318;103.762;2023-07-08T15:10:26;0.00;;;0.00;;
27780;SDS011;15167;1.318;103.762;2023-07-08T15:12:54;0.00;;;0.00;;
27780;SDS011;15167;1.318;103.762;2023-07-08T15:17:51;0.00;;;0.00;;
27780;SDS011;15167;1.318;103.762;2023-07-08T15:20:18;0.00;;;0.00;;
27780;SDS011;15167;1.318;103.762;2023-07-08T15:22:45;0.00;;;0.00;;
27780;SDS011;15167;1.318;103.762;2023-07-08T15:25:12;0.00;;;0.00;;
27780;SDS011;15167;1.318;103.762;2023-07-08T15:27:45;0.00;;;0.00;;
27780;SDS011;15167;1.318;103.762;2023-07-08T15:30:19;0.00;;;0.00;;
27780;SDS011;15167;1.318;103.762;2023-07-08T15:32:47;0.00;;;0.00;;
27780;SDS011;15167;1.318;103.762;2023-07-08T15:35:15;0.00;;;0.00;;
27780;SDS011;15167;1.318;103.762;2023-07-08T15:37:44;0.00;;;0.00;;
27780;SDS011;15167;1.318;103.762;2023-07-08T15:40:12;0.00;;;0.00;;
27780;SDS011;15167;1.318;103.762;2023-07-08T15:42:40;0.00;;;0.00;;
27780;SDS011;15167;1.318;103.762;2023-07-08T15:45:15;0.00;;;0.00;;